createdAt,value
2022-11-29T00:04:50.055Z,68.00
2022-11-29T00:10:11.813Z,70.10
2022-11-29T00:15:37.891Z,70.30
2022-11-29T00:21:00.075Z,69.80
2022-11-29T00:26:22.351Z,73.10
2022-11-29T00:31:44.788Z,72.10
2022-11-29T00:37:06.410Z,67.80
2022-11-29T00:42:28.340Z,69.10
2022-11-29T00:47:50.561Z,68.10
2022-11-29T00:53:12.364Z,63.30
2022-11-29T00:58:35.989Z,57.70
2022-11-29T01:03:57.964Z,50.20
2022-11-29T01:09:21.099Z,55.70
2022-11-29T01:14:43.921Z,64.20
2022-11-29T01:20:08.515Z,71.40
2022-11-29T01:25:32.314Z,69.00
2022-11-29T01:30:54.361Z,68.90
2022-11-29T01:36:16.425Z,70.40
2022-11-29T01:41:38.497Z,64.60
2022-11-29T01:47:00.286Z,70.10
2022-11-29T01:52:26.870Z,66.80
2022-11-29T01:57:48.598Z,63.20
2022-11-29T02:03:13.059Z,60.80
2022-11-29T02:08:41.198Z,62.00
2022-11-29T02:14:09.537Z,60.90
2022-11-29T02:20:06.393Z,57.30
2022-11-29T02:25:55.314Z,63.20
2022-11-29T02:31:44.541Z,60.30
2022-11-29T02:37:12.591Z,61.60
2022-11-29T02:42:56.558Z,58.60
2022-11-29T02:48:51.044Z,60.30
2022-11-29T02:54:26.818Z,53.40
2022-11-29T03:00:04.005Z,54.40
2022-11-29T03:05:47.972Z,51.40
2022-11-29T03:11:48.118Z,53.40
2022-11-29T03:17:26.559Z,44.80
2022-11-29T03:23:15.295Z,49.70
2022-11-29T03:28:40.289Z,59.90
2022-11-29T03:34:28.726Z,73.60
2022-11-29T03:40:03.385Z,73.60
2022-11-29T03:45:41.314Z,52.00
2022-11-29T03:51:07.749Z,59.40
2022-11-29T03:56:38.416Z,70.00
2022-11-29T04:02:46.980Z,60.40
2022-11-29T04:08:14.924Z,69.00
2022-11-29T04:14:08.090Z,57.50
2022-11-29T04:20:05.644Z,53.80
2022-11-29T04:25:55.074Z,60.70
2022-11-29T04:31:32.639Z,62.90
2022-11-29T04:37:15.060Z,56.80
2022-11-29T04:43:01.673Z,54.20
2022-11-29T04:48:43.772Z,62.80
2022-11-29T04:54:12.122Z,66.90
2022-11-29T04:59:47.833Z,65.80
2022-11-29T05:05:24.785Z,56.20
2022-11-29T05:11:02.751Z,57.30
2022-11-29T05:16:49.199Z,63.70
2022-11-29T05:22:41.629Z,79.30
2022-11-29T05:28:58.242Z,76.30
2022-11-29T05:34:35.740Z,68.30
2022-11-29T05:40:26.659Z,78.10
2022-11-29T05:46:03.893Z,67.90
2022-11-29T05:51:39.517Z,65.90
2022-11-29T05:57:22.316Z,68.80
2022-11-29T06:03:03.599Z,80.20
2022-11-29T06:08:30.047Z,90.70
2022-11-29T06:14:09.820Z,91.50
2022-11-29T06:19:40.620Z,78.60
2022-11-29T06:25:16.957Z,84.40
2022-11-29T06:31:04.458Z,85.60
2022-11-29T06:36:32.234Z,127.80
2022-11-29T06:41:53.890Z,114.90
2022-11-29T06:47:39.842Z,107.60
2022-11-29T06:53:16.691Z,99.10
2022-11-29T06:59:04.708Z,116.20
2022-11-29T07:04:32.660Z,102.80
2022-11-29T07:09:59.648Z,111.00
2022-11-29T07:15:23.403Z,110.60
2022-11-29T07:20:48.081Z,112.60
2022-11-29T07:26:14.982Z,98.60
2022-11-29T07:32:05.957Z,128.50
2022-11-29T07:37:37.388Z,128.30
2022-11-29T07:43:11.392Z,96.90
2022-11-29T07:48:33.321Z,120.30
2022-11-29T07:53:55.352Z,118.20
2022-11-29T07:59:17.162Z,86.90
2022-11-29T08:04:45.956Z,80.10
2022-11-29T08:10:14.836Z,65.10
2022-11-29T08:15:37.222Z,73.80
2022-11-29T08:20:59.047Z,70.10
2022-11-29T08:26:25.460Z,73.20
2022-11-29T08:31:53.845Z,74.10
2022-11-29T08:37:15.706Z,70.30
2022-11-29T08:42:37.702Z,63.00
2022-11-29T08:47:59.627Z,76.40
2022-11-29T08:53:40.377Z,82.90
2022-11-29T08:59:02.679Z,68.40
2022-11-29T09:04:24.547Z,55.00
2022-11-29T09:09:46.216Z,70.30
2022-11-29T09:15:10.255Z,63.90
2022-11-29T09:20:32.928Z,82.60
2022-11-29T09:25:55.616Z,59.40
2022-11-29T09:31:17.820Z,70.40
2022-11-29T09:36:40.347Z,73.00
2022-11-29T09:42:12.728Z,84.10
2022-11-29T09:48:06.987Z,72.80
2022-11-29T09:53:35.533Z,79.30
2022-11-29T09:59:00.453Z,75.00
2022-11-29T10:04:27.062Z,80.40
2022-11-29T10:10:01.899Z,74.00
2022-11-29T10:15:27.509Z,77.60
2022-11-29T10:20:51.202Z,69.10
2022-11-29T10:26:13.032Z,72.20
2022-11-29T10:31:42.944Z,67.80
2022-11-29T10:37:04.799Z,61.30
2022-11-29T10:42:46.653Z,73.90
2022-11-29T10:48:15.702Z,80.50
2022-11-29T10:53:37.580Z,96.20
2022-11-29T10:59:06.286Z,83.70
2022-11-29T11:04:34.775Z,69.20
2022-11-29T11:15:30.211Z,64.50
2022-11-29T11:20:57.993Z,68.90
2022-11-29T11:26:20.661Z,71.80
2022-11-29T11:31:42.531Z,56.30
2022-11-29T11:37:23.185Z,67.80
2022-11-29T11:42:45.415Z,65.50
2022-11-29T11:48:15.072Z,75.10
2022-11-29T11:53:37.950Z,66.50
2022-11-29T11:59:00.339Z,63.20
2022-11-29T12:04:30.338Z,57.10
2022-11-29T12:09:56.136Z,76.30
2022-11-29T12:15:22.860Z,71.20
2022-11-29T12:21:05.726Z,65.60
2022-11-29T12:26:56.419Z,58.70
2022-11-29T12:32:41.922Z,57.80
2022-11-29T12:38:32.899Z,74.80
2022-11-29T12:44:13.556Z,64.20
2022-11-29T12:49:54.187Z,58.50
2022-11-29T12:55:32.901Z,64.40
2022-11-29T13:01:19.049Z,61.00
2022-11-29T13:06:51.620Z,43.00
2022-11-29T13:12:35.722Z,65.80
2022-11-29T13:18:01.370Z,57.20
2022-11-29T13:29:26.473Z,86.30
2022-11-29T13:34:49.243Z,74.70
2022-11-29T13:40:23.978Z,99.00
2022-11-29T13:46:09.429Z,124.20
2022-11-29T13:51:37.512Z,110.30
2022-11-29T13:57:07.900Z,106.10
2022-11-29T14:02:31.705Z,125.10
2022-11-29T14:08:55.066Z,130.40
2022-11-29T14:14:15.779Z,107.30
2022-11-29T14:19:37.367Z,126.70
2022-11-29T14:25:01.144Z,93.10
2022-11-29T14:30:31.908Z,88.10
2022-11-29T14:36:17.607Z,85.80
2022-11-29T14:41:45.633Z,111.80
2022-11-29T14:47:17.770Z,115.40
2022-11-29T14:52:40.994Z,117.30
2022-11-29T14:58:06.348Z,113.50
2022-11-29T15:03:29.546Z,150.90
2022-11-29T15:09:01.060Z,108.00
2022-11-29T15:14:25.803Z,117.30
2022-11-29T15:20:15.400Z,116.30
2022-11-29T15:25:46.689Z,122.10
2022-11-29T15:31:10.348Z,145.50
2022-11-29T15:36:32.092Z,134.50
2022-11-29T15:41:59.999Z,130.60
2022-11-29T15:47:26.347Z,104.30
2022-11-29T15:52:48.576Z,108.40
2022-11-29T15:58:12.893Z,100.50
2022-11-29T16:03:39.009Z,83.40
2022-11-29T16:09:01.862Z,87.20
2022-11-29T16:14:28.451Z,100.30
2022-11-29T16:19:50.238Z,128.80
2022-11-29T16:25:17.749Z,121.90
2022-11-29T16:30:42.076Z,90.80
2022-11-29T16:36:19.518Z,100.20
2022-11-29T16:41:41.641Z,74.50
2022-11-29T16:47:16.444Z,74.40
2022-11-29T16:52:38.646Z,74.50
2022-11-29T16:58:00.275Z,98.50
2022-11-29T17:03:22.810Z,82.90
2022-11-29T17:08:45.534Z,107.70
2022-11-29T17:14:08.546Z,95.50
2022-11-29T17:19:31.201Z,113.40
2022-11-29T17:24:53.711Z,131.40
2022-11-29T17:30:15.972Z,113.70
2022-11-29T17:35:38.093Z,105.60
2022-11-29T17:41:00.025Z,98.60
2022-11-29T17:46:25.214Z,92.00
2022-11-29T17:51:52.151Z,76.20
2022-11-29T17:57:14.900Z,96.50
2022-11-29T18:02:36.910Z,95.90
2022-11-29T18:07:59.426Z,100.10
2022-11-29T18:13:21.632Z,99.10
2022-11-29T18:18:43.868Z,106.60
2022-11-29T18:24:06.753Z,89.60
2022-11-29T18:29:32.777Z,60.40
2022-11-29T18:35:01.895Z,81.10
2022-11-29T18:40:23.724Z,62.60
2022-11-29T18:45:45.636Z,69.90
2022-11-29T18:51:11.007Z,69.50
2022-11-29T18:56:34.631Z,67.10
2022-11-29T19:01:57.016Z,70.60
2022-11-29T19:07:18.791Z,86.70
2022-11-29T19:12:40.617Z,70.00
2022-11-29T19:18:02.247Z,88.00
2022-11-29T19:23:24.475Z,63.80
2022-11-29T19:28:46.673Z,74.40
2022-11-29T19:34:08.783Z,70.10
2022-11-29T19:39:34.026Z,53.80
2022-11-29T19:50:38.376Z,51.10
2022-11-29T19:56:05.305Z,55.10
2022-11-29T20:01:37.725Z,76.10
2022-11-29T20:07:02.744Z,56.20
2022-11-29T20:12:24.432Z,76.20
2022-11-29T20:17:46.521Z,68.00
2022-11-29T20:23:08.551Z,69.70
2022-11-29T20:28:30.804Z,72.80
2022-11-29T20:33:54.417Z,55.30
2022-11-29T20:39:25.633Z,67.00
2022-11-29T20:44:58.214Z,96.60
2022-11-29T20:50:24.097Z,72.60
2022-11-29T20:55:48.525Z,103.20
2022-11-29T21:01:10.627Z,69.10
2022-11-29T21:06:37.248Z,77.30
2022-11-29T21:11:59.687Z,72.50
2022-11-29T21:17:22.636Z,82.90
2022-11-29T21:22:47.204Z,89.50
2022-11-29T21:28:12.424Z,90.10
2022-11-29T21:33:34.777Z,80.60
2022-11-29T21:38:58.753Z,67.30
2022-11-29T21:44:22.553Z,68.30
2022-11-29T21:49:45.127Z,64.20
2022-11-29T21:55:07.616Z,66.00
2022-11-29T22:00:34.435Z,59.60
2022-11-29T22:06:06.429Z,65.50
2022-11-29T22:11:31.240Z,67.30
2022-11-29T22:17:00.555Z,62.00
2022-11-29T22:22:25.960Z,70.10
2022-11-29T22:27:50.498Z,56.40
2022-11-29T22:33:13.628Z,69.30
2022-11-29T22:38:36.170Z,59.20
2022-11-29T22:43:58.293Z,54.90
2022-11-29T22:49:20.041Z,48.60
2022-11-29T22:54:42.152Z,50.40
2022-11-29T23:00:07.393Z,58.30
2022-11-29T23:05:32.248Z,76.00
2022-11-29T23:10:56.712Z,69.60
2022-11-29T23:16:21.814Z,71.10
2022-11-29T23:21:45.943Z,54.00
2022-11-29T23:27:07.782Z,47.40
2022-11-29T23:32:30.299Z,47.00
2022-11-29T23:37:52.008Z,55.40
2022-11-29T23:43:14.029Z,64.30
2022-11-29T23:48:36.135Z,67.80
2022-11-29T23:53:57.929Z,69.30
2022-11-29T23:59:20.056Z,56.60
